sensor_id;sensor_type;location;lat;lon;timestamp;P1;durP1;ratioP1;P2;durP2;ratioP2
19944;SDS011;10134;50.952;6.930;2023-05-07T00:00:22;3.00;;;2.00;;
19944;SDS011;10134;50.952;6.930;2023-05-07T00:02:49;4.28;;;2.45;;
19944;SDS011;10134;50.952;6.930;2023-05-07T00:05:17;3.97;;;2.50;;
19944;SDS011;10134;50.952;6.930;2023-05-07T00:07:44;3.10;;;2.13;;
19944;SDS011;10134;50.952;6.930;2023-05-07T00:10:12;5.40;;;2.25;;
19944;SDS011;10134;50.952;6.930;2023-05-07T00:12:40;3.58;;;2.30;;
19944;SDS011;10134;50.952;6.930;2023-05-07T00:15:08;3.88;;;2.30;;
19944;SDS011;10134;50.952;6.930;2023-05-07T00:17:36;4.57;;;2.20;;
19944;SDS011;10134;50.952;6.930;2023-05-07T00:20:04;2.60;;;1.90;;
19944;SDS011;10134;50.952;6.930;2023-05-07T00:22:32;3.25;;;2.22;;
19944;SDS011;10134;50.952;6.930;2023-05-07T00:24:59;5.45;;;2.00;;
19944;SDS011;10134;50.952;6.930;2023-05-07T00:27:27;4.22;;;2.10;;
19944;SDS011;10134;50.952;6.930;2023-05-07T00:29:54;2.95;;;1.65;;
19944;SDS011;10134;50.952;6.930;2023-05-07T00:32:21;4.70;;;1.95;;
19944;SDS011;10134;50.952;6.930;2023-05-07T00:34:49;4.07;;;2.30;;
19944;SDS011;10134;50.952;6.930;2023-05-07T00:37:17;3.63;;;2.10;;
19944;SDS011;10134;50.952;6.930;2023-05-07T00:39:45;3.03;;;2.40;;
19944;SDS011;10134;50.952;6.930;2023-05-07T00:42:12;6.70;;;2.28;;
19944;SDS011;10134;50.952;6.930;2023-05-07T00:44:39;2.90;;;2.15;;
19944;SDS011;10134;50.952;6.930;2023-05-07T00:47:07;2.03;;;1.85;;
19944;SDS011;10134;50.952;6.930;2023-05-07T00:49:44;4.78;;;2.38;;
19944;SDS011;10134;50.952;6.930;2023-05-07T00:52:15;2.58;;;2.05;;
19944;SDS011;10134;50.952;6.930;2023-05-07T00:54:44;4.85;;;2.00;;
19944;SDS011;10134;50.952;6.930;2023-05-07T00:57:11;3.97;;;1.98;;
19944;SDS011;10134;50.952;6.930;2023-05-07T00:59:39;3.92;;;2.38;;
19944;SDS011;10134;50.952;6.930;2023-05-07T01:02:07;2.30;;;1.90;;
19944;SDS011;10134;50.952;6.930;2023-05-07T01:04:35;2.17;;;1.98;;
19944;SDS011;10134;50.952;6.930;2023-05-07T01:07:03;2.70;;;1.98;;
19944;SDS011;10134;50.952;6.930;2023-05-07T01:09:32;2.45;;;1.80;;
19944;SDS011;10134;50.952;6.930;2023-05-07T01:12:02;2.50;;;2.00;;
19944;SDS011;10134;50.952;6.930;2023-05-07T01:14:31;3.47;;;2.00;;
19944;SDS011;10134;50.952;6.930;2023-05-07T01:16:59;2.97;;;2.17;;
19944;SDS011;10134;50.952;6.930;2023-05-07T01:19:28;4.20;;;1.73;;
19944;SDS011;10134;50.952;6.930;2023-05-07T01:22:01;3.65;;;2.08;;
19944;SDS011;10134;50.952;6.930;2023-05-07T01:24:35;4.80;;;1.77;;
19944;SDS011;10134;50.952;6.930;2023-05-07T01:27:04;4.13;;;1.85;;
19944;SDS011;10134;50.952;6.930;2023-05-07T01:29:33;4.43;;;2.10;;
19944;SDS011;10134;50.952;6.930;2023-05-07T01:32:01;2.92;;;2.10;;
19944;SDS011;10134;50.952;6.930;2023-05-07T01:34:30;3.67;;;1.70;;
19944;SDS011;10134;50.952;6.930;2023-05-07T01:36:59;2.67;;;2.03;;
19944;SDS011;10134;50.952;6.930;2023-05-07T01:39:28;4.20;;;2.17;;
19944;SDS011;10134;50.952;6.930;2023-05-07T01:41:56;3.10;;;1.63;;
19944;SDS011;10134;50.952;6.930;2023-05-07T01:44:26;2.95;;;2.00;;
19944;SDS011;10134;50.952;6.930;2023-05-07T01:46:54;3.05;;;2.55;;
19944;SDS011;10134;50.952;6.930;2023-05-07T01:49:22;3.38;;;2.30;;
19944;SDS011;10134;50.952;6.930;2023-05-07T01:51:49;5.53;;;1.60;;
19944;SDS011;10134;50.952;6.930;2023-05-07T01:54:17;3.22;;;2.03;;
19944;SDS011;10134;50.952;6.930;2023-05-07T01:56:45;4.32;;;1.83;;
19944;SDS011;10134;50.952;6.930;2023-05-07T01:59:14;1.95;;;1.52;;
19944;SDS011;10134;50.952;6.930;2023-05-07T02:01:42;2.63;;;1.90;;
19944;SDS011;10134;50.952;6.930;2023-05-07T02:04:10;3.63;;;2.10;;
19944;SDS011;10134;50.952;6.930;2023-05-07T02:06:37;4.22;;;2.20;;
19944;SDS011;10134;50.952;6.930;2023-05-07T02:09:07;4.25;;;1.65;;
19944;SDS011;10134;50.952;6.930;2023-05-07T02:11:37;4.10;;;2.17;;
19944;SDS011;10134;50.952;6.930;2023-05-07T02:14:04;3.72;;;1.73;;
19944;SDS011;10134;50.952;6.930;2023-05-07T02:16:32;2.65;;;2.45;;
19944;SDS011;10134;50.952;6.930;2023-05-07T02:18:59;3.15;;;2.17;;
19944;SDS011;10134;50.952;6.930;2023-05-07T02:21:27;3.35;;;1.95;;
19944;SDS011;10134;50.952;6.930;2023-05-07T02:23:56;4.45;;;1.70;;
19944;SDS011;10134;50.952;6.930;2023-05-07T02:26:24;3.30;;;2.20;;
19944;SDS011;10134;50.952;6.930;2023-05-07T02:28:52;3.35;;;2.50;;
19944;SDS011;10134;50.952;6.930;2023-05-07T02:31:20;2.85;;;2.15;;
19944;SDS011;10134;50.952;6.930;2023-05-07T02:33:48;6.15;;;2.13;;
19944;SDS011;10134;50.952;6.930;2023-05-07T02:36:15;3.00;;;2.15;;
19944;SDS011;10134;50.952;6.930;2023-05-07T02:38:52;3.53;;;2.47;;
19944;SDS011;10134;50.952;6.930;2023-05-07T02:41:19;3.08;;;2.15;;
19944;SDS011;10134;50.952;6.930;2023-05-07T02:43:47;2.95;;;1.95;;
19944;SDS011;10134;50.952;6.930;2023-05-07T02:46:14;3.25;;;2.35;;
19944;SDS011;10134;50.952;6.930;2023-05-07T02:48:46;2.65;;;1.88;;
19944;SDS011;10134;50.952;6.930;2023-05-07T02:51:13;4.88;;;2.78;;
19944;SDS011;10134;50.952;6.930;2023-05-07T02:53:43;2.28;;;2.08;;
19944;SDS011;10134;50.952;6.930;2023-05-07T02:56:10;3.50;;;2.45;;
19944;SDS011;10134;50.952;6.930;2023-05-07T02:58:38;4.88;;;2.30;;
19944;SDS011;10134;50.952;6.930;2023-05-07T03:01:09;4.13;;;2.38;;
19944;SDS011;10134;50.952;6.930;2023-05-07T03:04:09;2.67;;;1.98;;
19944;SDS011;10134;50.952;6.930;2023-05-07T03:06:37;3.13;;;2.15;;
19944;SDS011;10134;50.952;6.930;2023-05-07T03:09:04;4.05;;;1.88;;
19944;SDS011;10134;50.952;6.930;2023-05-07T03:11:32;5.57;;;2.30;;
19944;SDS011;10134;50.952;6.930;2023-05-07T03:13:59;4.85;;;2.25;;
19944;SDS011;10134;50.952;6.930;2023-05-07T03:16:27;4.35;;;1.83;;
19944;SDS011;10134;50.952;6.930;2023-05-07T03:18:54;4.25;;;2.10;;
19944;SDS011;10134;50.952;6.930;2023-05-07T03:21:22;2.63;;;1.90;;
19944;SDS011;10134;50.952;6.930;2023-05-07T03:23:49;2.40;;;1.70;;
19944;SDS011;10134;50.952;6.930;2023-05-07T03:26:16;4.63;;;1.98;;
19944;SDS011;10134;50.952;6.930;2023-05-07T03:28:44;2.92;;;2.20;;
19944;SDS011;10134;50.952;6.930;2023-05-07T03:31:14;4.18;;;2.05;;
19944;SDS011;10134;50.952;6.930;2023-05-07T03:36:19;2.97;;;2.10;;
19944;SDS011;10134;50.952;6.930;2023-05-07T03:38:47;3.35;;;1.90;;
19944;SDS011;10134;50.952;6.930;2023-05-07T03:41:18;5.50;;;2.17;;
19944;SDS011;10134;50.952;6.930;2023-05-07T03:43:47;2.35;;;1.95;;
19944;SDS011;10134;50.952;6.930;2023-05-07T03:46:14;4.05;;;2.15;;
19944;SDS011;10134;50.952;6.930;2023-05-07T03:48:42;2.95;;;1.80;;
19944;SDS011;10134;50.952;6.930;2023-05-07T03:51:10;3.65;;;2.25;;
19944;SDS011;10134;50.952;6.930;2023-05-07T03:53:38;4.65;;;2.03;;
19944;SDS011;10134;50.952;6.930;2023-05-07T03:56:05;4.82;;;2.20;;
19944;SDS011;10134;50.952;6.930;2023-05-07T03:58:36;3.03;;;1.98;;
19944;SDS011;10134;50.952;6.930;2023-05-07T04:01:09;3.28;;;2.20;;
19944;SDS011;10134;50.952;6.930;2023-05-07T04:03:36;3.33;;;2.42;;
19944;SDS011;10134;50.952;6.930;2023-05-07T04:06:04;4.60;;;1.42;;
19944;SDS011;10134;50.952;6.930;2023-05-07T04:08:34;2.53;;;2.05;;
19944;SDS011;10134;50.952;6.930;2023-05-07T04:11:03;2.42;;;1.83;;
19944;SDS011;10134;50.952;6.930;2023-05-07T04:13:32;2.88;;;1.75;;
19944;SDS011;10134;50.952;6.930;2023-05-07T04:16:02;2.80;;;1.80;;
19944;SDS011;10134;50.952;6.930;2023-05-07T04:18:31;2.83;;;1.85;;
19944;SDS011;10134;50.952;6.930;2023-05-07T04:20:59;2.58;;;2.13;;
19944;SDS011;10134;50.952;6.930;2023-05-07T04:23:26;3.28;;;2.08;;
19944;SDS011;10134;50.952;6.930;2023-05-07T04:25:56;2.38;;;2.10;;
19944;SDS011;10134;50.952;6.930;2023-05-07T04:28:38;2.95;;;2.22;;
19944;SDS011;10134;50.952;6.930;2023-05-07T04:31:06;2.70;;;1.60;;
19944;SDS011;10134;50.952;6.930;2023-05-07T04:33:36;2.15;;;1.90;;
19944;SDS011;10134;50.952;6.930;2023-05-07T04:36:05;2.75;;;2.08;;
19944;SDS011;10134;50.952;6.930;2023-05-07T04:38:38;2.97;;;2.03;;
19944;SDS011;10134;50.952;6.930;2023-05-07T04:41:05;5.00;;;2.42;;
19944;SDS011;10134;50.952;6.930;2023-05-07T04:43:37;5.75;;;2.33;;
19944;SDS011;10134;50.952;6.930;2023-05-07T04:46:05;5.63;;;2.63;;
19944;SDS011;10134;50.952;6.930;2023-05-07T04:48:32;7.82;;;2.95;;
19944;SDS011;10134;50.952;6.930;2023-05-07T04:51:01;5.15;;;2.33;;
19944;SDS011;10134;50.952;6.930;2023-05-07T04:53:29;3.63;;;2.28;;
19944;SDS011;10134;50.952;6.930;2023-05-07T04:55:57;5.00;;;1.83;;
19944;SDS011;10134;50.952;6.930;2023-05-07T04:58:30;3.90;;;1.55;;
19944;SDS011;10134;50.952;6.930;2023-05-07T05:00:59;4.15;;;1.92;;
19944;SDS011;10134;50.952;6.930;2023-05-07T05:03:27;2.08;;;1.60;;
19944;SDS011;10134;50.952;6.930;2023-05-07T05:05:55;2.28;;;1.80;;
19944;SDS011;10134;50.952;6.930;2023-05-07T05:08:25;2.13;;;1.40;;
19944;SDS011;10134;50.952;6.930;2023-05-07T05:10:52;4.05;;;1.55;;
19944;SDS011;10134;50.952;6.930;2023-05-07T05:13:20;2.20;;;1.48;;
19944;SDS011;10134;50.952;6.930;2023-05-07T05:15:48;4.80;;;1.77;;
19944;SDS011;10134;50.952;6.930;2023-05-07T05:18:16;4.13;;;1.90;;
19944;SDS011;10134;50.952;6.930;2023-05-07T05:20:44;2.65;;;1.98;;
19944;SDS011;10134;50.952;6.930;2023-05-07T05:23:12;3.28;;;2.22;;
19944;SDS011;10134;50.952;6.930;2023-05-07T05:25:39;2.55;;;1.70;;
19944;SDS011;10134;50.952;6.930;2023-05-07T05:28:09;2.03;;;1.75;;
19944;SDS011;10134;50.952;6.930;2023-05-07T05:30:36;2.03;;;1.73;;
19944;SDS011;10134;50.952;6.930;2023-05-07T05:33:04;3.67;;;1.52;;
19944;SDS011;10134;50.952;6.930;2023-05-07T05:35:31;2.22;;;1.77;;
19944;SDS011;10134;50.952;6.930;2023-05-07T05:38:02;2.17;;;1.77;;
19944;SDS011;10134;50.952;6.930;2023-05-07T05:40:31;2.13;;;1.33;;
19944;SDS011;10134;50.952;6.930;2023-05-07T05:43:00;4.80;;;1.83;;
19944;SDS011;10134;50.952;6.930;2023-05-07T05:45:28;1.40;;;1.30;;
19944;SDS011;10134;50.952;6.930;2023-05-07T05:47:56;2.28;;;1.63;;
19944;SDS011;10134;50.952;6.930;2023-05-07T05:50:24;4.10;;;1.90;;
19944;SDS011;10134;50.952;6.930;2023-05-07T05:52:53;2.15;;;1.60;;
19944;SDS011;10134;50.952;6.930;2023-05-07T05:55:20;1.88;;;1.52;;
19944;SDS011;10134;50.952;6.930;2023-05-07T05:57:49;1.35;;;1.23;;
19944;SDS011;10134;50.952;6.930;2023-05-07T06:00:17;1.98;;;1.45;;
19944;SDS011;10134;50.952;6.930;2023-05-07T06:02:45;2.20;;;1.42;;
19944;SDS011;10134;50.952;6.930;2023-05-07T06:05:18;2.55;;;1.52;;
19944;SDS011;10134;50.952;6.930;2023-05-07T06:07:49;1.77;;;1.40;;
19944;SDS011;10134;50.952;6.930;2023-05-07T06:10:17;1.52;;;1.25;;
19944;SDS011;10134;50.952;6.930;2023-05-07T06:12:45;1.35;;;1.20;;
19944;SDS011;10134;50.952;6.930;2023-05-07T06:15:13;2.55;;;1.58;;
19944;SDS011;10134;50.952;6.930;2023-05-07T06:17:41;4.80;;;2.13;;
19944;SDS011;10134;50.952;6.930;2023-05-07T06:20:10;2.10;;;1.88;;
19944;SDS011;10134;50.952;6.930;2023-05-07T06:22:39;3.00;;;1.73;;
19944;SDS011;10134;50.952;6.930;2023-05-07T06:25:07;2.08;;;1.35;;
19944;SDS011;10134;50.952;6.930;2023-05-07T06:27:36;4.32;;;1.50;;
19944;SDS011;10134;50.952;6.930;2023-05-07T06:30:03;1.73;;;1.35;;
19944;SDS011;10134;50.952;6.930;2023-05-07T06:32:31;1.75;;;1.25;;
19944;SDS011;10134;50.952;6.930;2023-05-07T06:34:58;1.70;;;1.20;;
19944;SDS011;10134;50.952;6.930;2023-05-07T06:37:26;2.72;;;1.63;;
19944;SDS011;10134;50.952;6.930;2023-05-07T06:39:58;2.75;;;1.30;;
19944;SDS011;10134;50.952;6.930;2023-05-07T06:42:26;3.20;;;1.58;;
19944;SDS011;10134;50.952;6.930;2023-05-07T06:44:58;2.97;;;1.52;;
19944;SDS011;10134;50.952;6.930;2023-05-07T06:47:28;1.75;;;1.42;;
19944;SDS011;10134;50.952;6.930;2023-05-07T06:49:56;2.03;;;1.63;;
19944;SDS011;10134;50.952;6.930;2023-05-07T06:52:27;2.45;;;1.48;;
19944;SDS011;10134;50.952;6.930;2023-05-07T06:54:54;1.98;;;1.58;;
19944;SDS011;10134;50.952;6.930;2023-05-07T06:57:23;4.55;;;1.77;;
19944;SDS011;10134;50.952;6.930;2023-05-07T06:59:51;2.08;;;1.60;;
19944;SDS011;10134;50.952;6.930;2023-05-07T07:02:19;2.35;;;1.50;;
19944;SDS011;10134;50.952;6.930;2023-05-07T07:04:48;3.08;;;1.67;;
19944;SDS011;10134;50.952;6.930;2023-05-07T07:07:16;3.10;;;1.77;;
19944;SDS011;10134;50.952;6.930;2023-05-07T07:09:46;4.18;;;1.80;;
19944;SDS011;10134;50.952;6.930;2023-05-07T07:12:16;2.13;;;1.20;;
19944;SDS011;10134;50.952;6.930;2023-05-07T07:14:43;2.22;;;1.52;;
19944;SDS011;10134;50.952;6.930;2023-05-07T07:17:12;2.83;;;1.83;;
19944;SDS011;10134;50.952;6.930;2023-05-07T07:19:39;2.03;;;1.33;;
19944;SDS011;10134;50.952;6.930;2023-05-07T07:22:07;1.40;;;1.10;;
19944;SDS011;10134;50.952;6.930;2023-05-07T07:24:34;3.10;;;1.63;;
19944;SDS011;10134;50.952;6.930;2023-05-07T07:27:05;3.47;;;1.80;;
19944;SDS011;10134;50.952;6.930;2023-05-07T07:29:33;2.47;;;1.73;;
19944;SDS011;10134;50.952;6.930;2023-05-07T07:32:01;2.22;;;1.52;;
19944;SDS011;10134;50.952;6.930;2023-05-07T07:34:29;2.10;;;1.45;;
19944;SDS011;10134;50.952;6.930;2023-05-07T07:36:57;3.15;;;1.45;;
19944;SDS011;10134;50.952;6.930;2023-05-07T07:39:24;1.40;;;1.30;;
19944;SDS011;10134;50.952;6.930;2023-05-07T07:41:55;3.85;;;1.65;;
19944;SDS011;10134;50.952;6.930;2023-05-07T07:44:22;3.00;;;1.42;;
19944;SDS011;10134;50.952;6.930;2023-05-07T07:46:55;4.13;;;1.80;;
19944;SDS011;10134;50.952;6.930;2023-05-07T07:49:24;4.90;;;1.60;;
19944;SDS011;10134;50.952;6.930;2023-05-07T07:51:54;3.60;;;1.52;;
19944;SDS011;10134;50.952;6.930;2023-05-07T07:54:23;2.22;;;1.50;;
19944;SDS011;10134;50.952;6.930;2023-05-07T07:56:50;3.40;;;1.58;;
19944;SDS011;10134;50.952;6.930;2023-05-07T07:59:18;2.92;;;1.40;;
19944;SDS011;10134;50.952;6.930;2023-05-07T08:01:46;2.50;;;1.30;;
19944;SDS011;10134;50.952;6.930;2023-05-07T08:04:19;3.70;;;2.00;;
19944;SDS011;10134;50.952;6.930;2023-05-07T08:06:48;2.10;;;1.45;;
19944;SDS011;10134;50.952;6.930;2023-05-07T08:09:15;2.45;;;1.60;;
19944;SDS011;10134;50.952;6.930;2023-05-07T08:11:43;2.47;;;2.00;;
19944;SDS011;10134;50.952;6.930;2023-05-07T08:14:11;3.08;;;1.77;;
19944;SDS011;10134;50.952;6.930;2023-05-07T08:16:39;3.28;;;2.25;;
19944;SDS011;10134;50.952;6.930;2023-05-07T08:19:07;3.33;;;2.15;;
19944;SDS011;10134;50.952;6.930;2023-05-07T08:21:34;4.85;;;2.13;;
19944;SDS011;10134;50.952;6.930;2023-05-07T08:24:08;4.40;;;2.20;;
19944;SDS011;10134;50.952;6.930;2023-05-07T08:26:36;4.05;;;1.75;;
19944;SDS011;10134;50.952;6.930;2023-05-07T08:29:07;2.20;;;1.63;;
19944;SDS011;10134;50.952;6.930;2023-05-07T08:31:34;1.42;;;1.27;;
19944;SDS011;10134;50.952;6.930;2023-05-07T08:34:03;2.20;;;1.45;;
19944;SDS011;10134;50.952;6.930;2023-05-07T08:36:30;2.65;;;2.25;;
19944;SDS011;10134;50.952;6.930;2023-05-07T08:38:58;1.83;;;1.65;;
19944;SDS011;10134;50.952;6.930;2023-05-07T08:41:26;2.40;;;1.80;;
19944;SDS011;10134;50.952;6.930;2023-05-07T08:43:55;5.10;;;1.70;;
19944;SDS011;10134;50.952;6.930;2023-05-07T08:46:26;3.30;;;1.73;;
19944;SDS011;10134;50.952;6.930;2023-05-07T08:48:58;3.42;;;1.67;;
19944;SDS011;10134;50.952;6.930;2023-05-07T08:51:27;3.83;;;1.50;;
19944;SDS011;10134;50.952;6.930;2023-05-07T08:53:54;1.90;;;1.45;;
19944;SDS011;10134;50.952;6.930;2023-05-07T08:56:26;4.03;;;1.70;;
19944;SDS011;10134;50.952;6.930;2023-05-07T08:58:54;2.60;;;1.75;;
19944;SDS011;10134;50.952;6.930;2023-05-07T09:01:27;2.70;;;1.65;;
19944;SDS011;10134;50.952;6.930;2023-05-07T09:03:55;3.13;;;1.90;;
19944;SDS011;10134;50.952;6.930;2023-05-07T09:06:26;3.75;;;1.52;;
19944;SDS011;10134;50.952;6.930;2023-05-07T09:08:54;4.15;;;1.55;;
19944;SDS011;10134;50.952;6.930;2023-05-07T09:11:25;4.28;;;1.70;;
19944;SDS011;10134;50.952;6.930;2023-05-07T09:13:55;2.75;;;1.63;;
19944;SDS011;10134;50.952;6.930;2023-05-07T09:16:24;3.25;;;1.63;;
19944;SDS011;10134;50.952;6.930;2023-05-07T09:18:53;2.92;;;1.52;;
19944;SDS011;10134;50.952;6.930;2023-05-07T09:21:22;2.75;;;1.90;;
19944;SDS011;10134;50.952;6.930;2023-05-07T09:23:53;1.73;;;1.50;;
19944;SDS011;10134;50.952;6.930;2023-05-07T09:26:26;4.20;;;1.60;;
19944;SDS011;10134;50.952;6.930;2023-05-07T09:28:55;3.38;;;1.83;;
19944;SDS011;10134;50.952;6.930;2023-05-07T09:31:22;2.80;;;1.60;;
19944;SDS011;10134;50.952;6.930;2023-05-07T09:33:52;2.67;;;1.88;;
19944;SDS011;10134;50.952;6.930;2023-05-07T09:36:23;4.22;;;2.50;;
19944;SDS011;10134;50.952;6.930;2023-05-07T09:38:51;6.03;;;3.65;;
19944;SDS011;10134;50.952;6.930;2023-05-07T09:41:18;5.20;;;2.38;;
19944;SDS011;10134;50.952;6.930;2023-05-07T09:43:54;2.33;;;1.83;;
19944;SDS011;10134;50.952;6.930;2023-05-07T09:46:28;4.00;;;2.70;;
19944;SDS011;10134;50.952;6.930;2023-05-07T09:49:01;3.55;;;2.40;;
19944;SDS011;10134;50.952;6.930;2023-05-07T09:54:12;2.95;;;1.45;;
19944;SDS011;10134;50.952;6.930;2023-05-07T09:56:43;2.83;;;2.00;;
19944;SDS011;10134;50.952;6.930;2023-05-07T09:59:17;2.75;;;1.70;;
19944;SDS011;10134;50.952;6.930;2023-05-07T10:01:47;2.42;;;2.08;;
19944;SDS011;10134;50.952;6.930;2023-05-07T10:04:16;2.67;;;1.42;;
19944;SDS011;10134;50.952;6.930;2023-05-07T10:06:45;2.05;;;1.83;;
19944;SDS011;10134;50.952;6.930;2023-05-07T10:09:13;1.95;;;1.58;;
19944;SDS011;10134;50.952;6.930;2023-05-07T10:11:42;3.17;;;2.03;;
19944;SDS011;10134;50.952;6.930;2023-05-07T10:14:10;2.63;;;1.67;;
19944;SDS011;10134;50.952;6.930;2023-05-07T10:16:40;2.30;;;1.73;;
19944;SDS011;10134;50.952;6.930;2023-05-07T10:19:12;2.03;;;1.60;;
19944;SDS011;10134;50.952;6.930;2023-05-07T10:21:44;3.03;;;1.50;;
19944;SDS011;10134;50.952;6.930;2023-05-07T10:24:21;1.67;;;1.40;;
19944;SDS011;10134;50.952;6.930;2023-05-07T10:26:52;2.38;;;1.60;;
19944;SDS011;10134;50.952;6.930;2023-05-07T10:29:37;1.90;;;1.70;;
19944;SDS011;10134;50.952;6.930;2023-05-07T10:35:21;2.05;;;1.58;;
19944;SDS011;10134;50.952;6.930;2023-05-07T10:37:53;3.20;;;2.00;;
19944;SDS011;10134;50.952;6.930;2023-05-07T10:40:22;4.53;;;1.60;;
19944;SDS011;10134;50.952;6.930;2023-05-07T10:43:02;3.80;;;1.70;;
19944;SDS011;10134;50.952;6.930;2023-05-07T10:45:43;2.50;;;1.17;;
19944;SDS011;10134;50.952;6.930;2023-05-07T10:48:31;2.80;;;1.30;;
19944;SDS011;10134;50.952;6.930;2023-05-07T10:51:18;3.60;;;1.67;;
19944;SDS011;10134;50.952;6.930;2023-05-07T10:56:44;1.25;;;1.13;;
19944;SDS011;10134;50.952;6.930;2023-05-07T11:01:52;2.28;;;1.52;;
19944;SDS011;10134;50.952;6.930;2023-05-07T11:04:40;2.10;;;1.20;;
19944;SDS011;10134;50.952;6.930;2023-05-07T11:07:32;3.22;;;1.38;;
19944;SDS011;10134;50.952;6.930;2023-05-07T11:10:04;1.80;;;1.20;;
19944;SDS011;10134;50.952;6.930;2023-05-07T11:12:52;1.30;;;1.20;;
19944;SDS011;10134;50.952;6.930;2023-05-07T11:15:33;2.42;;;1.00;;
19944;SDS011;10134;50.952;6.930;2023-05-07T11:18:05;1.90;;;1.20;;
19944;SDS011;10134;50.952;6.930;2023-05-07T11:20:53;4.45;;;1.33;;
19944;SDS011;10134;50.952;6.930;2023-05-07T11:26:13;2.97;;;1.50;;
19944;SDS011;10134;50.952;6.930;2023-05-07T11:28:43;2.70;;;1.48;;
19944;SDS011;10134;50.952;6.930;2023-05-07T11:31:11;1.00;;;0.93;;
19944;SDS011;10134;50.952;6.930;2023-05-07T11:33:39;3.15;;;1.23;;
19944;SDS011;10134;50.952;6.930;2023-05-07T11:36:12;1.75;;;1.13;;
19944;SDS011;10134;50.952;6.930;2023-05-07T11:38:44;1.52;;;1.40;;
19944;SDS011;10134;50.952;6.930;2023-05-07T11:41:12;2.28;;;1.25;;
19944;SDS011;10134;50.952;6.930;2023-05-07T11:43:53;2.90;;;1.20;;
19944;SDS011;10134;50.952;6.930;2023-05-07T11:46:22;1.83;;;1.30;;
19944;SDS011;10134;50.952;6.930;2023-05-07T11:48:50;2.13;;;1.23;;
19944;SDS011;10134;50.952;6.930;2023-05-07T11:51:21;2.20;;;1.45;;
19944;SDS011;10134;50.952;6.930;2023-05-07T11:53:52;2.22;;;1.58;;
19944;SDS011;10134;50.952;6.930;2023-05-07T11:56:22;4.40;;;3.30;;
19944;SDS011;10134;50.952;6.930;2023-05-07T11:58:49;3.22;;;2.13;;
19944;SDS011;10134;50.952;6.930;2023-05-07T12:01:18;2.28;;;1.30;;
19944;SDS011;10134;50.952;6.930;2023-05-07T12:03:46;2.85;;;1.40;;
19944;SDS011;10134;50.952;6.930;2023-05-07T12:06:14;1.70;;;1.45;;
19944;SDS011;10134;50.952;6.930;2023-05-07T12:08:43;2.83;;;1.83;;
19944;SDS011;10134;50.952;6.930;2023-05-07T12:11:22;5.22;;;1.80;;
19944;SDS011;10134;50.952;6.930;2023-05-07T12:13:50;3.58;;;1.80;;
19944;SDS011;10134;50.952;6.930;2023-05-07T12:16:20;1.77;;;1.42;;
19944;SDS011;10134;50.952;6.930;2023-05-07T12:18:48;2.55;;;2.00;;
19944;SDS011;10134;50.952;6.930;2023-05-07T12:21:16;6.05;;;3.75;;
19944;SDS011;10134;50.952;6.930;2023-05-07T12:23:44;4.20;;;1.98;;
19944;SDS011;10134;50.952;6.930;2023-05-07T12:26:12;2.33;;;1.65;;
19944;SDS011;10134;50.952;6.930;2023-05-07T12:28:39;1.58;;;1.25;;
19944;SDS011;10134;50.952;6.930;2023-05-07T12:31:07;2.33;;;1.30;;
19944;SDS011;10134;50.952;6.930;2023-05-07T12:33:35;1.92;;;1.40;;
19944;SDS011;10134;50.952;6.930;2023-05-07T12:36:03;8.48;;;2.15;;
19944;SDS011;10134;50.952;6.930;2023-05-07T12:38:34;1.13;;;1.02;;
19944;SDS011;10134;50.952;6.930;2023-05-07T12:41:03;2.67;;;1.40;;
19944;SDS011;10134;50.952;6.930;2023-05-07T12:43:33;1.55;;;1.23;;
19944;SDS011;10134;50.952;6.930;2023-05-07T12:46:03;2.38;;;1.65;;
19944;SDS011;10134;50.952;6.930;2023-05-07T12:48:32;1.40;;;1.30;;
19944;SDS011;10134;50.952;6.930;2023-05-07T12:51:00;2.17;;;1.40;;
19944;SDS011;10134;50.952;6.930;2023-05-07T12:53:29;1.20;;;1.10;;
19944;SDS011;10134;50.952;6.930;2023-05-07T12:55:58;3.55;;;1.30;;
19944;SDS011;10134;50.952;6.930;2023-05-07T12:58:27;2.72;;;1.17;;
19944;SDS011;10134;50.952;6.930;2023-05-07T13:00:56;5.55;;;1.40;;
19944;SDS011;10134;50.952;6.930;2023-05-07T13:05:57;2.83;;;1.10;;
19944;SDS011;10134;50.952;6.930;2023-05-07T13:08:26;2.20;;;1.48;;
19944;SDS011;10134;50.952;6.930;2023-05-07T13:10:56;2.67;;;1.30;;
19944;SDS011;10134;50.952;6.930;2023-05-07T13:13:25;2.60;;;1.60;;
19944;SDS011;10134;50.952;6.930;2023-05-07T13:15:55;2.85;;;1.85;;
19944;SDS011;10134;50.952;6.930;2023-05-07T13:18:23;4.50;;;2.42;;
19944;SDS011;10134;50.952;6.930;2023-05-07T13:20:52;6.60;;;1.85;;
19944;SDS011;10134;50.952;6.930;2023-05-07T13:23:20;4.47;;;2.38;;
19944;SDS011;10134;50.952;6.930;2023-05-07T13:25:48;3.95;;;1.73;;
19944;SDS011;10134;50.952;6.930;2023-05-07T13:28:16;4.20;;;1.85;;
19944;SDS011;10134;50.952;6.930;2023-05-07T13:30:43;4.13;;;2.03;;
19944;SDS011;10134;50.952;6.930;2023-05-07T13:33:11;3.03;;;1.58;;
19944;SDS011;10134;50.952;6.930;2023-05-07T13:35:39;2.30;;;1.80;;
19944;SDS011;10134;50.952;6.930;2023-05-07T13:38:06;1.55;;;1.33;;
19944;SDS011;10134;50.952;6.930;2023-05-07T13:40:33;2.13;;;1.58;;
19944;SDS011;10134;50.952;6.930;2023-05-07T13:43:01;5.57;;;1.60;;
19944;SDS011;10134;50.952;6.930;2023-05-07T13:45:29;1.50;;;1.15;;
19944;SDS011;10134;50.952;6.930;2023-05-07T13:47:57;2.10;;;1.63;;
19944;SDS011;10134;50.952;6.930;2023-05-07T13:50:24;2.05;;;1.75;;
19944;SDS011;10134;50.952;6.930;2023-05-07T13:52:53;1.88;;;1.27;;
19944;SDS011;10134;50.952;6.930;2023-05-07T13:55:21;2.00;;;1.60;;
19944;SDS011;10134;50.952;6.930;2023-05-07T13:57:56;3.20;;;1.50;;
19944;SDS011;10134;50.952;6.930;2023-05-07T14:00:25;3.22;;;1.30;;
19944;SDS011;10134;50.952;6.930;2023-05-07T14:02:53;2.90;;;1.50;;
19944;SDS011;10134;50.952;6.930;2023-05-07T14:05:21;4.47;;;2.00;;
19944;SDS011;10134;50.952;6.930;2023-05-07T14:07:55;2.88;;;2.03;;
19944;SDS011;10134;50.952;6.930;2023-05-07T14:10:24;2.13;;;1.67;;
19944;SDS011;10134;50.952;6.930;2023-05-07T14:12:51;3.92;;;1.50;;
19944;SDS011;10134;50.952;6.930;2023-05-07T14:15:19;3.28;;;1.50;;
19944;SDS011;10134;50.952;6.930;2023-05-07T14:17:47;3.13;;;1.48;;
19944;SDS011;10134;50.952;6.930;2023-05-07T14:20:14;19.35;;;5.57;;
19944;SDS011;10134;50.952;6.930;2023-05-07T14:22:41;13.60;;;5.22;;
19944;SDS011;10134;50.952;6.930;2023-05-07T14:25:09;10.38;;;4.40;;
19944;SDS011;10134;50.952;6.930;2023-05-07T14:27:36;9.98;;;4.35;;
19944;SDS011;10134;50.952;6.930;2023-05-07T14:30:04;4.82;;;2.83;;
19944;SDS011;10134;50.952;6.930;2023-05-07T14:32:32;11.45;;;3.28;;
19944;SDS011;10134;50.952;6.930;2023-05-07T14:35:00;11.80;;;3.28;;
19944;SDS011;10134;50.952;6.930;2023-05-07T14:37:27;2.28;;;1.90;;
19944;SDS011;10134;50.952;6.930;2023-05-07T14:39:54;5.13;;;2.40;;
19944;SDS011;10134;50.952;6.930;2023-05-07T14:42:22;3.45;;;1.90;;
19944;SDS011;10134;50.952;6.930;2023-05-07T14:44:49;2.38;;;1.70;;
19944;SDS011;10134;50.952;6.930;2023-05-07T14:47:16;2.85;;;2.20;;
19944;SDS011;10134;50.952;6.930;2023-05-07T14:49:45;1.58;;;1.48;;
19944;SDS011;10134;50.952;6.930;2023-05-07T14:52:13;2.45;;;2.10;;
19944;SDS011;10134;50.952;6.930;2023-05-07T14:54:40;2.20;;;2.00;;
19944;SDS011;10134;50.952;6.930;2023-05-07T14:57:08;5.78;;;1.75;;
19944;SDS011;10134;50.952;6.930;2023-05-07T14:59:37;3.55;;;2.00;;
19944;SDS011;10134;50.952;6.930;2023-05-07T15:02:05;5.80;;;2.97;;
19944;SDS011;10134;50.952;6.930;2023-05-07T15:04:35;4.28;;;2.58;;
19944;SDS011;10134;50.952;6.930;2023-05-07T15:07:04;2.60;;;2.13;;
19944;SDS011;10134;50.952;6.930;2023-05-07T15:09:32;4.22;;;2.40;;
19944;SDS011;10134;50.952;6.930;2023-05-07T15:11:59;4.32;;;2.47;;
19944;SDS011;10134;50.952;6.930;2023-05-07T15:14:26;3.83;;;2.08;;
19944;SDS011;10134;50.952;6.930;2023-05-07T15:16:54;4.18;;;2.10;;
19944;SDS011;10134;50.952;6.930;2023-05-07T15:19:21;7.88;;;2.53;;